createdAt,value
2024-03-11T00:02:06.355Z,92831.94
2024-03-11T00:07:09.892Z,92817.53
2024-03-11T00:12:15.275Z,92810.44
2024-03-11T00:17:19.890Z,92815.81
2024-03-11T00:22:22.764Z,92802.88
2024-03-11T00:27:27.095Z,92806.44
2024-03-11T00:32:31.842Z,92804.56
2024-03-11T00:37:36.324Z,92800.25
2024-03-11T00:42:42.101Z,92805.00
2024-03-11T00:47:46.924Z,92802.66
2024-03-11T00:52:50.759Z,92780.06
2024-03-11T00:57:54.424Z,92787.81
2024-03-11T01:02:59.135Z,92790.59
2024-03-11T01:08:02.569Z,92782.44
2024-03-11T01:13:07.450Z,92779.31
2024-03-11T01:18:11.205Z,92772.25
2024-03-11T01:23:14.380Z,92751.97
2024-03-11T01:28:18.660Z,92751.97
2024-03-11T01:33:21.728Z,92753.09
2024-03-11T01:38:25.400Z,92751.94
2024-03-11T01:43:29.517Z,92756.97
2024-03-11T01:48:32.716Z,92756.19
2024-03-11T01:53:36.500Z,92755.00
2024-03-11T01:58:42.586Z,92747.59
2024-03-11T02:03:46.137Z,92722.94
2024-03-11T02:08:50.800Z,92707.75
2024-03-11T02:13:54.532Z,92694.47
2024-03-11T02:18:57.529Z,92650.00
2024-03-11T02:24:00.545Z,92650.41
2024-03-11T02:29:03.987Z,92656.63
2024-03-11T02:34:07.072Z,92651.91
2024-03-11T02:39:10.560Z,92655.78
2024-03-11T02:44:15.626Z,92651.84
2024-03-11T02:49:20.019Z,92652.19
2024-03-11T02:54:24.960Z,92663.97
2024-03-11T02:59:28.217Z,92682.31
2024-03-11T03:04:32.217Z,92702.69
2024-03-11T03:09:38.014Z,92679.63
2024-03-11T03:14:42.166Z,92684.41
2024-03-11T03:19:45.702Z,92683.63
2024-03-11T03:24:48.758Z,92673.81
2024-03-11T03:29:52.231Z,92675.47
2024-03-11T03:34:55.766Z,92653.34
2024-03-11T03:39:59.275Z,92635.91
2024-03-11T03:45:02.379Z,92657.19
2024-03-11T03:50:06.607Z,92641.41
2024-03-11T03:55:13.797Z,92630.44
2024-03-11T04:00:18.591Z,92648.00
2024-03-11T04:05:23.322Z,92640.66
2024-03-11T04:10:27.885Z,92650.94
2024-03-11T04:15:31.578Z,92650.66
2024-03-11T04:20:34.746Z,92660.97
2024-03-11T04:25:38.792Z,92658.81
2024-03-11T04:30:42.471Z,92662.00
2024-03-11T04:35:46.709Z,92666.16
2024-03-11T04:40:50.010Z,92677.16
2024-03-11T04:45:53.477Z,92676.88
2024-03-11T04:50:56.621Z,92687.69
2024-03-11T04:56:00.233Z,92705.13
2024-03-11T05:01:05.891Z,92705.41
2024-03-11T05:06:08.904Z,92709.66
2024-03-11T05:11:12.485Z,92730.63
2024-03-11T05:16:16.440Z,92721.56
2024-03-11T05:21:19.354Z,92723.81
2024-03-11T05:26:22.942Z,92722.25
2024-03-11T05:31:27.524Z,92723.53
2024-03-11T05:36:30.293Z,92727.41
2024-03-11T05:41:33.210Z,92728.91
2024-03-11T05:46:36.738Z,92731.97
2024-03-11T05:51:40.125Z,92735.53
2024-03-11T05:56:45.359Z,92749.09
2024-03-11T06:01:48.965Z,92753.22
2024-03-11T06:06:52.935Z,92765.28
2024-03-11T06:11:56.198Z,92758.06
2024-03-11T06:17:03.563Z,92762.16
2024-03-11T06:22:13.439Z,92762.97
2024-03-11T06:27:16.842Z,92766.59
2024-03-11T06:32:20.110Z,92760.00
2024-03-11T06:37:23.806Z,92765.44
2024-03-11T06:42:26.812Z,92767.19
2024-03-11T06:47:29.860Z,92767.06
2024-03-11T06:52:35.464Z,92777.25
2024-03-11T06:57:42.622Z,92779.72
2024-03-11T07:02:50.568Z,92783.88
2024-03-11T07:07:56.890Z,92788.34
2024-03-11T07:13:00.598Z,92796.13
2024-03-11T07:18:04.061Z,92808.94
2024-03-11T07:23:10.422Z,92808.97
2024-03-11T07:28:14.246Z,92818.44
2024-03-11T07:33:18.316Z,92818.53
2024-03-11T07:38:25.006Z,92817.50
2024-03-11T07:43:30.821Z,92835.09
2024-03-11T07:48:34.188Z,92822.25
2024-03-11T07:53:38.346Z,92827.16
2024-03-11T07:58:41.619Z,92827.00
2024-03-11T08:03:45.684Z,92828.75
2024-03-11T08:08:51.871Z,92843.53
2024-03-11T08:13:55.366Z,92845.41
2024-03-11T08:18:59.004Z,92861.56
2024-03-11T08:24:02.391Z,92849.19
2024-03-11T08:29:06.075Z,92863.09
2024-03-11T08:34:09.593Z,92877.56
2024-03-11T08:39:12.745Z,92885.06
2024-03-11T08:44:15.985Z,92890.53
2024-03-11T08:49:19.535Z,92891.25
2024-03-11T08:54:24.084Z,92900.59
2024-03-11T08:59:28.226Z,92906.97
2024-03-11T09:04:32.192Z,92906.88
2024-03-11T09:09:36.704Z,92909.53
2024-03-11T09:14:39.793Z,92908.72
2024-03-11T09:19:43.462Z,92912.19
2024-03-11T09:24:46.565Z,92918.38
2024-03-11T09:29:50.172Z,92911.28
2024-03-11T09:34:53.378Z,92922.22
2024-03-11T09:39:56.810Z,92929.44
2024-03-11T09:45:04.075Z,92924.84
2024-03-11T09:50:12.512Z,92944.72
2024-03-11T09:55:16.340Z,92948.25
2024-03-11T10:00:25.315Z,92952.97
2024-03-11T10:05:32.447Z,92948.97
2024-03-11T10:10:36.002Z,92941.47
2024-03-11T10:15:39.372Z,92934.56
2024-03-11T10:20:45.537Z,92949.97
2024-03-11T10:25:50.622Z,92948.94
2024-03-11T10:30:54.414Z,92944.91
2024-03-11T10:36:13.144Z,92954.00
2024-03-11T10:41:23.514Z,92960.78
2024-03-11T10:46:26.577Z,92958.94
2024-03-11T10:51:35.015Z,92937.50
2024-03-11T10:56:42.472Z,92944.25
2024-03-11T11:01:53.572Z,92945.59
2024-03-11T11:07:03.822Z,92930.25
2024-03-11T11:12:07.592Z,92932.88
2024-03-11T11:17:11.214Z,92928.25
2024-03-11T11:22:15.491Z,92938.28
2024-03-11T11:27:26.785Z,92925.13
2024-03-11T11:32:33.390Z,92914.81
2024-03-11T11:37:41.598Z,92926.72
2024-03-11T11:42:45.141Z,92931.00
2024-03-11T11:47:48.699Z,92940.41
2024-03-11T11:53:05.496Z,92936.72
2024-03-11T11:58:10.146Z,92940.53
2024-03-11T12:03:32.520Z,92934.91
2024-03-11T12:08:36.780Z,92922.38
2024-03-11T12:13:42.556Z,92916.31
2024-03-11T12:19:07.196Z,92919.91
2024-03-11T12:24:15.182Z,92908.56
2024-03-11T12:29:22.692Z,92936.72
2024-03-11T12:34:26.650Z,92918.84
2024-03-11T12:39:35.750Z,92916.81
2024-03-11T12:44:39.392Z,92909.63
2024-03-11T12:49:42.866Z,92921.28
2024-03-11T12:54:46.370Z,92933.31
2024-03-11T13:00:01.777Z,92948.91
2024-03-11T13:05:15.929Z,92945.38
2024-03-11T13:10:18.959Z,92952.00
2024-03-11T13:15:25.176Z,92953.72
2024-03-11T13:20:54.980Z,92947.50
2024-03-11T13:25:58.578Z,92968.53
2024-03-11T13:31:10.132Z,92948.06
2024-03-11T13:36:16.228Z,92966.66
2024-03-11T13:41:19.276Z,92956.94
2024-03-11T13:46:22.619Z,92971.59
2024-03-11T13:51:26.381Z,92984.13
2024-03-11T13:56:31.902Z,92978.34
2024-03-11T14:01:36.012Z,92982.72
2024-03-11T14:06:41.656Z,92971.50
2024-03-11T14:11:46.641Z,92972.25
2024-03-11T14:16:50.581Z,92962.19
2024-03-11T14:21:55.399Z,92954.38
2024-03-11T14:26:58.831Z,92957.75
2024-03-11T14:32:02.860Z,92963.16
2024-03-11T14:37:06.132Z,92969.59
2024-03-11T14:42:09.167Z,92964.78
2024-03-11T14:47:13.821Z,92962.41
2024-03-11T14:52:16.824Z,92973.59
2024-03-11T14:57:20.631Z,92975.00
2024-03-11T15:02:24.327Z,92985.34
2024-03-11T15:07:28.066Z,92985.25
2024-03-11T15:12:32.298Z,92979.38
2024-03-11T15:17:37.310Z,92993.22
2024-03-11T15:22:42.077Z,92995.66
2024-03-11T15:27:47.019Z,93014.47
2024-03-11T15:32:53.458Z,93013.06
2024-03-11T15:37:58.369Z,93017.22
2024-03-11T15:43:02.532Z,93014.00
2024-03-11T15:48:07.243Z,93020.13
2024-03-11T15:53:11.621Z,93026.97
2024-03-11T15:58:15.422Z,93031.38
2024-03-11T16:03:20.714Z,93012.75
2024-03-11T16:08:23.996Z,93008.84
2024-03-11T16:13:27.020Z,93023.84
2024-03-11T16:18:30.560Z,93050.41
2024-03-11T16:23:34.714Z,93056.94
2024-03-11T16:28:38.214Z,93072.41
2024-03-11T16:33:42.150Z,93077.25
2024-03-11T16:38:51.622Z,93084.81
2024-03-11T16:43:56.785Z,93090.38
2024-03-11T16:49:01.333Z,93095.88
2024-03-11T16:54:06.355Z,93096.66
2024-03-11T16:59:09.878Z,93096.03
2024-03-11T17:04:16.331Z,93103.94
2024-03-11T17:09:22.087Z,93116.03
2024-03-11T17:14:29.060Z,93121.31
2024-03-11T17:19:32.336Z,93125.19
2024-03-11T17:24:42.747Z,93136.16
2024-03-11T17:29:46.813Z,93133.94
2024-03-11T17:34:50.530Z,93139.06
2024-03-11T17:39:54.966Z,93149.28
2024-03-11T17:44:58.308Z,93155.94
2024-03-11T17:50:02.048Z,93159.75
2024-03-11T17:55:08.184Z,93176.94
2024-03-11T18:00:12.837Z,93168.03
2024-03-11T18:05:18.791Z,93184.03
2024-03-11T18:10:24.113Z,93186.38
2024-03-11T18:15:29.045Z,93199.66
2024-03-11T18:20:34.750Z,93198.50
2024-03-11T18:25:38.147Z,93202.06
2024-03-11T18:30:41.837Z,93209.09
2024-03-11T18:35:46.535Z,93219.59
2024-03-11T18:40:50.136Z,93235.97
2024-03-11T18:45:54.020Z,93244.94
2024-03-11T18:51:05.362Z,93262.09
2024-03-11T18:56:10.524Z,93258.81
2024-03-11T19:01:14.633Z,93272.69
2024-03-11T19:06:20.626Z,93269.00
2024-03-11T19:11:29.728Z,93262.97
2024-03-11T19:16:33.307Z,93273.53
2024-03-11T19:21:39.849Z,93263.84
2024-03-11T19:26:43.713Z,93262.06
2024-03-11T19:31:46.837Z,93246.81
2024-03-11T19:37:12.192Z,93249.16
2024-03-11T19:42:23.365Z,93260.81
2024-03-11T19:48:04.072Z,93261.53
2024-03-11T19:53:36.053Z,93264.88
2024-03-11T19:59:18.726Z,93280.81
2024-03-11T20:05:11.746Z,93278.66
2024-03-11T20:10:33.468Z,93302.81
2024-03-11T20:15:52.685Z,93298.59
2024-03-11T20:21:05.483Z,93307.13
2024-03-11T20:26:55.964Z,93309.47
2024-03-11T20:32:01.524Z,93318.28
2024-03-11T20:37:05.599Z,93310.38
2024-03-11T20:42:12.195Z,93315.75
2024-03-11T20:47:16.549Z,93293.88
2024-03-11T20:52:20.263Z,93299.09
2024-03-11T20:57:23.755Z,93308.91
2024-03-11T21:02:27.251Z,93303.94
2024-03-11T21:07:30.242Z,93307.41
2024-03-11T21:12:33.378Z,93301.97
2024-03-11T21:17:40.443Z,93293.47
2024-03-11T21:22:43.581Z,93298.78
2024-03-11T21:27:54.419Z,93291.91
2024-03-11T21:32:57.728Z,93290.91
2024-03-11T21:38:12.949Z,93283.16
2024-03-11T21:43:21.816Z,93284.34
2024-03-11T21:48:24.900Z,93292.91
2024-03-11T21:53:30.362Z,93296.00
2024-03-11T21:58:33.615Z,93308.47
2024-03-11T22:03:36.982Z,93304.25
2024-03-11T22:08:40.567Z,93285.13
2024-03-11T22:13:43.812Z,93287.53
2024-03-11T22:18:47.193Z,93293.19
2024-03-11T22:23:50.667Z,93288.41
2024-03-11T22:28:57.256Z,93282.16
2024-03-11T22:34:00.741Z,93284.19
2024-03-11T22:39:07.055Z,93290.81
2024-03-11T22:44:10.711Z,93292.13
2024-03-11T22:49:14.905Z,93298.03
2024-03-11T22:54:18.173Z,93287.50
2024-03-11T22:59:21.658Z,93293.59
2024-03-11T23:04:25.238Z,93299.06
2024-03-11T23:09:30.360Z,93292.94
2024-03-11T23:14:35.295Z,93296.22
2024-03-11T23:19:45.271Z,93274.38
2024-03-11T23:24:49.060Z,93272.19
2024-03-11T23:29:52.992Z,93277.41
2024-03-11T23:34:57.465Z,93275.13
2024-03-11T23:40:00.941Z,93292.06
2024-03-11T23:45:04.434Z,93292.34
2024-03-11T23:50:07.958Z,93296.63
2024-03-11T23:55:12.565Z,93291.59
